Terminal Aerodrome Forecast
Issued by NWS Tulsa, OK

Home | Current Version | Previous Version | Text Only | Print | Product List | Glossary On
Versions: 1 2 3 4 5 6 7 8 9 10 11 12
669
FTUS44 KTSA 290520
TAFTUL
TAF
KTUL 290520Z 2906/3006 17013KT P6SM FEW250
     FM291400 18013G22KT P6SM FEW040 SCT250
     FM291800 18016G27KT P6SM SCT050 SCT250
     FM300200 17012G20KT P6SM FEW050 BKN250=

USA.gov is the U.S. government's official web portal to all federal, state and local government web resources and services.